createdAt,value
2022-08-25T00:00:47.842Z,1015.81
2022-08-25T00:01:47.838Z,1015.81
2022-08-25T00:02:55.477Z,1015.82
2022-08-25T00:03:48.820Z,1015.79
2022-08-25T00:04:53.034Z,1015.82
2022-08-25T00:05:48.865Z,1015.82
2022-08-25T00:06:47.785Z,1015.80
2022-08-25T00:07:47.787Z,1015.78
2022-08-25T00:08:47.761Z,1015.79
2022-08-25T00:09:47.789Z,1015.79
2022-08-25T00:11:00.345Z,1015.79
2022-08-25T00:11:48.717Z,1015.78
2022-08-25T00:12:47.735Z,1015.77
2022-08-25T00:13:47.754Z,1015.81
2022-08-25T00:14:47.855Z,1015.78
2022-08-25T00:15:47.736Z,1015.76
2022-08-25T00:16:47.661Z,1015.78
2022-08-25T00:17:47.671Z,1015.76
2022-08-25T00:18:47.645Z,1015.74
2022-08-25T00:19:47.661Z,1015.70
2022-08-25T00:20:48.795Z,1015.68
2022-08-25T00:21:47.611Z,1015.71
2022-08-25T00:22:48.785Z,1015.69
2022-08-25T00:23:47.584Z,1015.70
2022-08-25T00:24:47.581Z,1015.68
2022-08-25T00:25:47.565Z,1015.67
2022-08-25T00:26:47.575Z,1015.66
2022-08-25T00:27:47.698Z,1015.64
2022-08-25T00:28:47.526Z,1015.63
2022-08-25T00:29:47.725Z,1015.62
2022-08-25T00:30:47.588Z,1015.61
2022-08-25T00:31:47.495Z,1015.63
2022-08-25T00:32:55.334Z,1015.60
2022-08-25T00:33:49.086Z,1015.56
2022-08-25T00:34:47.456Z,1015.58
2022-08-25T00:35:47.450Z,1015.57
2022-08-25T00:36:47.433Z,1015.55
2022-08-25T00:37:47.466Z,1015.56
2022-08-25T00:38:47.421Z,1015.58
2022-08-25T00:39:47.463Z,1015.58
2022-08-25T00:40:47.396Z,1015.55
2022-08-25T00:41:47.388Z,1015.57
2022-08-25T00:42:47.402Z,1015.57
2022-08-25T00:43:47.402Z,1015.55
2022-08-25T00:44:47.421Z,1015.57
2022-08-25T00:45:47.339Z,1015.61
2022-08-25T00:46:47.337Z,1015.62
2022-08-25T00:47:47.350Z,1015.59
2022-08-25T00:48:47.315Z,1015.57
2022-08-25T00:49:47.291Z,1015.59
2022-08-25T00:50:47.326Z,1015.61
2022-08-25T00:51:47.275Z,1015.58
2022-08-25T00:52:47.280Z,1015.58
2022-08-25T00:53:47.304Z,1015.58
2022-08-25T00:54:47.246Z,1015.58
2022-08-25T00:55:47.225Z,1015.60
2022-08-25T00:56:47.220Z,1015.55
2022-08-25T00:57:47.215Z,1015.57
2022-08-25T00:58:47.214Z,1015.57
2022-08-25T00:59:47.211Z,1015.59
2022-08-25T01:00:47.184Z,1015.60
2022-08-25T01:01:48.195Z,1015.59
2022-08-25T01:02:47.257Z,1015.62
2022-08-25T01:03:47.151Z,1015.61
2022-08-25T01:04:48.814Z,1015.64
2022-08-25T01:05:47.239Z,1015.62
2022-08-25T01:06:47.106Z,1015.62
2022-08-25T01:07:47.101Z,1015.63
2022-08-25T01:08:47.113Z,1015.64
2022-08-25T01:09:47.081Z,1015.65
2022-08-25T01:10:47.065Z,1015.67
2022-08-25T01:11:47.054Z,1015.67
2022-08-25T01:12:47.058Z,1015.68
2022-08-25T01:13:47.025Z,1015.66
2022-08-25T01:14:47.026Z,1015.66
2022-08-25T01:15:47.096Z,1015.65
2022-08-25T01:16:47.003Z,1015.60
2022-08-25T01:17:49.722Z,1015.60
2022-08-25T01:18:47.102Z,1015.61
2022-08-25T01:19:46.958Z,1015.59
2022-08-25T01:20:46.960Z,1015.60
2022-08-25T01:21:46.938Z,1015.58
2022-08-25T01:22:50.866Z,1015.57
2022-08-25T01:23:47.933Z,1015.63
2022-08-25T01:24:46.901Z,1015.63
2022-08-25T01:25:46.914Z,1015.61
2022-08-25T01:26:46.901Z,1015.62
2022-08-25T01:27:46.888Z,1015.59
2022-08-25T01:28:46.881Z,1015.56
2022-08-25T01:29:46.855Z,1015.60
2022-08-25T01:30:46.920Z,1015.61
2022-08-25T01:31:46.839Z,1015.59
2022-08-25T01:32:46.845Z,1015.58
2022-08-25T01:33:46.827Z,1015.59
2022-08-25T01:34:46.794Z,1015.61
2022-08-25T01:35:46.968Z,1015.61
2022-08-25T01:36:46.783Z,1015.61
2022-08-25T01:37:46.785Z,1015.59
2022-08-25T01:38:46.782Z,1015.61
2022-08-25T01:39:46.970Z,1015.60
2022-08-25T01:40:46.739Z,1015.61
2022-08-25T01:41:46.756Z,1015.59
2022-08-25T01:42:46.717Z,1015.57
2022-08-25T01:43:46.736Z,1015.57
2022-08-25T01:44:46.681Z,1015.58
2022-08-25T01:45:46.747Z,1015.60
2022-08-25T01:46:46.672Z,1015.60
2022-08-25T01:47:46.663Z,1015.57
2022-08-25T01:48:46.676Z,1015.56
2022-08-25T01:49:46.647Z,1015.52
2022-08-25T01:50:46.614Z,1015.57
2022-08-25T01:51:46.607Z,1015.55
2022-08-25T01:52:46.595Z,1015.54
2022-08-25T01:53:46.611Z,1015.55
2022-08-25T01:54:46.609Z,1015.52
2022-08-25T01:55:46.563Z,1015.54
2022-08-25T01:56:46.550Z,1015.54
2022-08-25T01:57:46.542Z,1015.54
2022-08-25T01:58:46.566Z,1015.53
2022-08-25T01:59:46.536Z,1015.53
2022-08-25T02:00:46.512Z,1015.54
2022-08-25T02:01:46.561Z,1015.47
2022-08-25T02:02:46.523Z,1015.51
2022-08-25T02:03:48.421Z,1015.48
2022-08-25T02:04:46.469Z,1015.42
2022-08-25T02:05:48.081Z,1015.47
2022-08-25T02:06:46.453Z,1015.48
2022-08-25T02:07:46.584Z,1015.48
2022-08-25T02:08:46.430Z,1015.48
2022-08-25T02:09:46.427Z,1015.48
2022-08-25T02:10:46.418Z,1015.50
2022-08-25T02:11:46.614Z,1015.47
2022-08-25T02:12:47.244Z,1015.50
2022-08-25T02:13:46.375Z,1015.47
2022-08-25T02:14:46.349Z,1015.51
2022-08-25T02:15:46.352Z,1015.45
2022-08-25T02:16:52.833Z,1015.46
2022-08-25T02:17:46.315Z,1015.42
2022-08-25T02:18:46.311Z,1015.45
2022-08-25T02:19:46.296Z,1015.45
2022-08-25T02:20:46.292Z,1015.40
2022-08-25T02:21:46.302Z,1015.42
2022-08-25T02:22:56.920Z,1015.43
2022-08-25T02:23:47.261Z,1015.39
2022-08-25T02:24:46.365Z,1015.40
2022-08-25T02:25:46.231Z,1015.39
2022-08-25T02:26:46.257Z,1015.33
2022-08-25T02:27:46.218Z,1015.38
2022-08-25T02:28:46.419Z,1015.35
2022-08-25T02:29:46.186Z,1015.32
2022-08-25T02:30:46.231Z,1015.34
2022-08-25T02:31:46.211Z,1015.33
2022-08-25T02:32:46.165Z,1015.35
2022-08-25T02:33:46.142Z,1015.29
2022-08-25T02:34:46.123Z,1015.33
2022-08-25T02:35:46.127Z,1015.32
2022-08-25T02:36:46.282Z,1015.30
2022-08-25T02:37:46.105Z,1015.26
2022-08-25T02:38:46.088Z,1015.25
2022-08-25T02:39:46.133Z,1015.25
2022-08-25T02:40:55.224Z,1015.23
2022-08-25T02:41:46.272Z,1015.19
2022-08-25T02:42:47.742Z,1015.21
2022-08-25T02:43:46.040Z,1015.19
2022-08-25T02:44:46.009Z,1015.14
2022-08-25T02:45:48.532Z,1015.18
2022-08-25T02:46:45.989Z,1015.17
2022-08-25T02:47:45.996Z,1015.14
2022-08-25T02:48:45.971Z,1015.18
2022-08-25T02:49:45.963Z,1015.19
2022-08-25T02:50:45.976Z,1015.20
2022-08-25T02:51:45.937Z,1015.18
2022-08-25T02:52:45.924Z,1015.16
2022-08-25T02:53:45.915Z,1015.20
2022-08-25T02:54:45.926Z,1015.21
2022-08-25T02:55:45.903Z,1015.22
2022-08-25T02:56:46.613Z,1015.22
2022-08-25T02:57:45.873Z,1015.22
2022-08-25T02:58:45.858Z,1015.18
2022-08-25T02:59:45.856Z,1015.18
2022-08-25T03:00:46.249Z,1015.17
2022-08-25T03:01:45.833Z,1015.17
2022-08-25T03:02:45.821Z,1015.19
2022-08-25T03:03:45.836Z,1015.20
2022-08-25T03:04:45.822Z,1015.16
2022-08-25T03:05:45.804Z,1015.18
2022-08-25T03:06:45.814Z,1015.14
2022-08-25T03:07:45.765Z,1015.13
2022-08-25T03:08:45.799Z,1015.10
2022-08-25T03:09:45.750Z,1015.08
2022-08-25T03:10:45.737Z,1015.11
2022-08-25T03:11:45.727Z,1015.09
2022-08-25T03:12:45.708Z,1015.09
2022-08-25T03:13:45.773Z,1015.07
2022-08-25T03:14:45.720Z,1015.06
2022-08-25T03:15:49.393Z,1015.03
2022-08-25T03:16:46.300Z,1014.98
2022-08-25T03:17:45.960Z,1015.05
2022-08-25T03:18:45.640Z,1015.03
2022-08-25T03:19:47.770Z,1015.04
2022-08-25T03:20:45.621Z,1014.99
2022-08-25T03:21:45.609Z,1015.00
2022-08-25T03:22:45.598Z,1014.96
2022-08-25T03:23:45.591Z,1014.98
2022-08-25T03:24:45.593Z,1014.98
2022-08-25T03:25:45.565Z,1014.99
2022-08-25T03:26:45.549Z,1014.98
2022-08-25T03:27:45.542Z,1015.01
2022-08-25T03:28:45.562Z,1014.97
2022-08-25T03:29:45.553Z,1015.01
2022-08-25T03:30:45.512Z,1014.98
2022-08-25T03:31:45.562Z,1014.96
2022-08-25T03:32:45.489Z,1014.97
2022-08-25T03:33:45.482Z,1014.89
2022-08-25T03:34:45.925Z,1014.93
2022-08-25T03:35:45.453Z,1014.89
2022-08-25T03:36:45.451Z,1014.91
2022-08-25T03:37:45.437Z,1014.89
2022-08-25T03:38:45.425Z,1014.90
2022-08-25T03:39:51.589Z,1014.95
2022-08-25T03:40:45.458Z,1014.93
2022-08-25T03:41:45.394Z,1014.93
2022-08-25T03:42:45.400Z,1014.96
2022-08-25T03:43:45.407Z,1014.96
2022-08-25T03:44:48.633Z,1014.94
2022-08-25T03:45:45.501Z,1014.92
2022-08-25T03:46:45.328Z,1014.95
2022-08-25T03:47:46.148Z,1014.94
2022-08-25T03:48:45.331Z,1014.92
2022-08-25T03:49:45.341Z,1014.92
2022-08-25T03:50:50.605Z,1014.96
2022-08-25T03:51:46.445Z,1014.91
2022-08-25T03:52:45.293Z,1014.95
2022-08-25T03:53:45.267Z,1014.90
2022-08-25T03:54:45.238Z,1014.95
2022-08-25T03:55:45.242Z,1014.93
2022-08-25T03:56:45.220Z,1014.92
2022-08-25T03:57:59.465Z,1014.91
2022-08-25T03:58:45.197Z,1014.95
2022-08-25T03:59:45.193Z,1014.97
2022-08-25T04:00:45.237Z,1014.98
2022-08-25T04:01:45.316Z,1015.03
2022-08-25T04:02:45.278Z,1015.00
2022-08-25T04:03:45.145Z,1015.04
2022-08-25T04:04:45.162Z,1015.07
2022-08-25T04:05:45.126Z,1015.02
2022-08-25T04:06:45.123Z,1015.01
2022-08-25T04:07:45.119Z,1015.04
2022-08-25T04:08:45.649Z,1015.10
2022-08-25T04:10:37.827Z,1015.12
2022-08-25T04:11:37.700Z,1015.10
2022-08-25T04:12:37.681Z,1015.11
2022-08-25T04:13:37.697Z,1015.12
2022-08-25T04:14:37.643Z,1015.11
2022-08-25T04:15:37.650Z,1015.10
2022-08-25T04:16:37.725Z,1015.10
2022-08-25T04:17:37.611Z,1015.09
2022-08-25T04:18:37.598Z,1015.06
2022-08-25T04:19:37.669Z,1015.11
2022-08-25T04:20:37.602Z,1015.14
2022-08-25T04:21:37.833Z,1015.15
2022-08-25T04:22:37.577Z,1015.15
2022-08-25T04:23:38.174Z,1015.12
2022-08-25T04:24:37.588Z,1015.12
2022-08-25T04:25:37.857Z,1015.18
2022-08-25T04:26:37.518Z,1015.17
2022-08-25T04:27:37.900Z,1015.21
2022-08-25T04:28:37.487Z,1015.16
2022-08-25T04:29:37.477Z,1015.19
2022-08-25T04:30:37.477Z,1015.16
2022-08-25T04:31:37.528Z,1015.21
2022-08-25T04:32:37.534Z,1015.20
2022-08-25T04:33:37.449Z,1015.22
2022-08-25T04:34:38.086Z,1015.23
2022-08-25T04:35:37.449Z,1015.27
2022-08-25T04:36:37.612Z,1015.23
2022-08-25T04:37:37.430Z,1015.20
2022-08-25T04:38:37.509Z,1015.16
2022-08-25T04:39:38.092Z,1015.17
2022-08-25T04:40:38.101Z,1015.14
2022-08-25T04:41:37.340Z,1015.10
2022-08-25T04:42:37.333Z,1015.14
2022-08-25T04:43:37.317Z,1015.13
2022-08-25T04:44:37.599Z,1015.18
2022-08-25T04:45:37.339Z,1015.14
2022-08-25T04:46:37.308Z,1015.16
2022-08-25T04:47:37.292Z,1015.14
2022-08-25T04:48:37.262Z,1015.16
2022-08-25T04:49:37.257Z,1015.14
2022-08-25T04:50:37.240Z,1015.14
2022-08-25T04:51:41.805Z,1015.20
2022-08-25T04:52:37.220Z,1015.15
2022-08-25T04:53:37.205Z,1015.18
2022-08-25T04:54:39.431Z,1015.21
2022-08-25T04:55:37.262Z,1015.17
2022-08-25T04:56:37.182Z,1015.14
2022-08-25T04:57:37.474Z,1015.21
2022-08-25T04:58:37.158Z,1015.19
2022-08-25T04:59:37.142Z,1015.21
2022-08-25T05:00:37.203Z,1015.17
2022-08-25T05:01:37.210Z,1015.19
2022-08-25T05:02:37.118Z,1015.21
2022-08-25T05:03:37.313Z,1015.18
2022-08-25T05:04:37.168Z,1015.16
2022-08-25T05:05:37.074Z,1015.14
2022-08-25T05:06:37.067Z,1015.10
2022-08-25T05:07:37.051Z,1015.13
2022-08-25T05:08:37.973Z,1015.19
2022-08-25T05:09:37.028Z,1015.21
2022-08-25T05:10:37.023Z,1015.21
2022-08-25T05:11:37.010Z,1015.21
2022-08-25T05:12:37.026Z,1015.24
2022-08-25T05:13:36.986Z,1015.22
2022-08-25T05:14:37.131Z,1015.18
2022-08-25T05:15:36.962Z,1015.21
2022-08-25T05:16:37.003Z,1015.23
2022-08-25T05:17:36.944Z,1015.21
2022-08-25T05:18:37.134Z,1015.22
2022-08-25T05:19:36.923Z,1015.30
2022-08-25T05:20:36.911Z,1015.28
2022-08-25T05:21:36.934Z,1015.31
2022-08-25T05:22:36.887Z,1015.32
2022-08-25T05:23:36.873Z,1015.34
2022-08-25T05:24:36.867Z,1015.34
2022-08-25T05:25:36.850Z,1015.31
2022-08-25T05:26:36.860Z,1015.32
2022-08-25T05:27:36.848Z,1015.31
2022-08-25T05:28:36.829Z,1015.34
2022-08-25T05:29:36.858Z,1015.33
2022-08-25T05:30:36.800Z,1015.36
2022-08-25T05:31:41.748Z,1015.38
2022-08-25T05:32:37.813Z,1015.42
2022-08-25T05:33:36.768Z,1015.39
2022-08-25T05:34:36.751Z,1015.41
2022-08-25T05:35:36.777Z,1015.47
2022-08-25T05:36:39.148Z,1015.48
2022-08-25T05:37:36.725Z,1015.45
2022-08-25T05:38:36.712Z,1015.48
2022-08-25T05:39:36.697Z,1015.51
2022-08-25T05:40:36.702Z,1015.43
2022-08-25T05:41:56.262Z,1015.47
2022-08-25T05:42:36.665Z,1015.47
2022-08-25T05:43:36.652Z,1015.48
2022-08-25T05:44:36.645Z,1015.50
2022-08-25T05:45:36.658Z,1015.48
2022-08-25T05:46:37.143Z,1015.43
2022-08-25T05:47:36.619Z,1015.47
2022-08-25T05:48:36.600Z,1015.47
2022-08-25T05:49:36.586Z,1015.47
2022-08-25T05:50:36.591Z,1015.48
2022-08-25T05:51:36.584Z,1015.43
2022-08-25T05:52:37.108Z,1015.44
2022-08-25T05:53:36.541Z,1015.43
2022-08-25T05:54:36.528Z,1015.40
2022-08-25T05:55:36.521Z,1015.39
2022-08-25T05:56:36.511Z,1015.43
2022-08-25T05:57:36.531Z,1015.40
2022-08-25T05:58:36.486Z,1015.42
2022-08-25T05:59:36.473Z,1015.43
2022-08-25T06:00:36.579Z,1015.45
2022-08-25T06:01:36.454Z,1015.45
2022-08-25T06:02:36.445Z,1015.42
2022-08-25T06:03:36.501Z,1015.41
2022-08-25T06:04:39.577Z,1015.42
2022-08-25T06:05:37.114Z,1015.41
2022-08-25T06:06:36.398Z,1015.41
2022-08-25T06:07:36.383Z,1015.41
2022-08-25T06:08:39.141Z,1015.39
2022-08-25T06:09:36.693Z,1015.46
2022-08-25T06:10:36.353Z,1015.44
2022-08-25T06:11:36.636Z,1015.45
2022-08-25T06:12:36.350Z,1015.39
2022-08-25T06:13:36.324Z,1015.42
2022-08-25T06:14:36.312Z,1015.42
2022-08-25T06:15:36.300Z,1015.42
2022-08-25T06:16:36.420Z,1015.43
2022-08-25T06:17:36.281Z,1015.39
2022-08-25T06:18:36.287Z,1015.41
2022-08-25T06:19:37.122Z,1015.40
2022-08-25T06:20:37.247Z,1015.35
2022-08-25T06:21:36.231Z,1015.43
2022-08-25T06:22:37.123Z,1015.41
2022-08-25T06:23:36.238Z,1015.38
2022-08-25T06:24:36.206Z,1015.35
2022-08-25T06:25:36.195Z,1015.38
2022-08-25T06:26:36.273Z,1015.37
2022-08-25T06:27:36.165Z,1015.41
2022-08-25T06:28:36.174Z,1015.39
2022-08-25T06:29:36.145Z,1015.32
2022-08-25T06:30:36.135Z,1015.30
2022-08-25T06:31:36.176Z,1015.28
2022-08-25T06:32:36.109Z,1015.27
2022-08-25T06:33:36.115Z,1015.29
2022-08-25T06:34:36.090Z,1015.29
2022-08-25T06:35:36.077Z,1015.34
2022-08-25T06:36:36.071Z,1015.32
2022-08-25T06:37:36.055Z,1015.38
2022-08-25T06:38:36.106Z,1015.36
2022-08-25T06:39:36.299Z,1015.39
2022-08-25T06:40:36.058Z,1015.37
2022-08-25T06:41:37.014Z,1015.40
2022-08-25T06:42:36.007Z,1015.40
2022-08-25T06:43:36.014Z,1015.39
2022-08-25T06:44:35.987Z,1015.44
2022-08-25T06:45:36.248Z,1015.44
2022-08-25T06:46:37.107Z,1015.49
2022-08-25T06:47:35.973Z,1015.46
2022-08-25T06:48:35.957Z,1015.44
2022-08-25T06:49:36.348Z,1015.45
2022-08-25T06:50:35.923Z,1015.44
2022-08-25T06:51:36.125Z,1015.48
2022-08-25T06:52:35.897Z,1015.52
2022-08-25T06:53:36.390Z,1015.52
2022-08-25T06:54:35.937Z,1015.54
2022-08-25T06:55:35.859Z,1015.50
2022-08-25T06:56:36.635Z,1015.54
2022-08-25T06:57:35.940Z,1015.54
2022-08-25T06:58:35.865Z,1015.53
2022-08-25T06:59:35.822Z,1015.54
2022-08-25T07:00:36.683Z,1015.57
2022-08-25T07:01:35.960Z,1015.56
2022-08-25T07:02:35.813Z,1015.54
2022-08-25T07:03:36.027Z,1015.55
2022-08-25T07:04:35.765Z,1015.57
2022-08-25T07:05:43.452Z,1015.59
2022-08-25T07:06:36.776Z,1015.60
2022-08-25T07:07:44.132Z,1015.53
2022-08-25T07:08:36.741Z,1015.59
2022-08-25T07:09:39.052Z,1015.52
2022-08-25T07:10:35.698Z,1015.44
2022-08-25T07:11:36.638Z,1015.43
2022-08-25T07:12:35.718Z,1015.41
2022-08-25T07:13:35.666Z,1015.40
2022-08-25T07:14:35.653Z,1015.44
2022-08-25T07:15:35.743Z,1015.41
2022-08-25T07:16:35.714Z,1015.42
2022-08-25T07:17:35.624Z,1015.43
2022-08-25T07:18:35.633Z,1015.42
2022-08-25T07:19:35.606Z,1015.38
2022-08-25T07:20:35.590Z,1015.37
2022-08-25T07:21:35.966Z,1015.39
2022-08-25T07:22:35.567Z,1015.39
2022-08-25T07:23:35.579Z,1015.37
2022-08-25T07:24:35.541Z,1015.40
2022-08-25T07:25:35.528Z,1015.34
2022-08-25T07:26:38.235Z,1015.30
2022-08-25T07:27:35.506Z,1015.35
2022-08-25T07:28:36.104Z,1015.32
2022-08-25T07:29:35.486Z,1015.33
2022-08-25T07:30:36.470Z,1015.26
2022-08-25T07:31:35.541Z,1015.31
2022-08-25T07:32:35.538Z,1015.29
2022-08-25T07:33:35.455Z,1015.28
2022-08-25T07:34:35.435Z,1015.27
2022-08-25T07:35:37.466Z,1015.23
2022-08-25T07:36:35.412Z,1015.27
2022-08-25T07:37:50.294Z,1015.29
2022-08-25T07:38:37.509Z,1015.26
2022-08-25T07:39:35.377Z,1015.28
2022-08-25T07:40:35.432Z,1015.27
2022-08-25T07:41:35.350Z,1015.25
2022-08-25T07:42:35.345Z,1015.19
2022-08-25T07:43:35.347Z,1015.19
2022-08-25T07:44:35.321Z,1015.19
2022-08-25T07:45:36.147Z,1015.16
2022-08-25T07:46:38.042Z,1015.19
2022-08-25T07:47:35.314Z,1015.20
2022-08-25T07:48:35.280Z,1015.22
2022-08-25T07:49:35.866Z,1015.24
2022-08-25T07:50:35.257Z,1015.25
2022-08-25T07:51:35.692Z,1015.22
2022-08-25T07:52:35.237Z,1015.28
2022-08-25T07:53:35.295Z,1015.30
2022-08-25T07:54:37.596Z,1015.24
2022-08-25T07:55:36.743Z,1015.25
2022-08-25T07:56:35.194Z,1015.26
2022-08-25T07:57:35.174Z,1015.30
2022-08-25T07:58:35.167Z,1015.28
2022-08-25T07:59:39.952Z,1015.23
2022-08-25T08:00:36.163Z,1015.24
2022-08-25T08:01:35.197Z,1015.22
2022-08-25T08:02:35.158Z,1015.26
2022-08-25T08:03:50.112Z,1015.31
2022-08-25T08:04:36.099Z,1015.30
2022-08-25T08:05:35.587Z,1015.27
2022-08-25T08:06:35.075Z,1015.21
2022-08-25T08:07:43.035Z,1015.21
2022-08-25T08:08:36.453Z,1015.23
2022-08-25T08:09:35.050Z,1015.22
2022-08-25T08:10:54.093Z,1015.23
2022-08-25T08:11:36.028Z,1015.25
2022-08-25T08:12:35.014Z,1015.22
2022-08-25T08:13:39.333Z,1015.20
2022-08-25T08:14:35.993Z,1015.19
2022-08-25T08:15:35.004Z,1015.14
2022-08-25T08:16:35.061Z,1015.11
2022-08-25T08:17:34.959Z,1015.15
2022-08-25T08:18:34.947Z,1015.17
2022-08-25T08:19:34.976Z,1015.21
2022-08-25T08:20:42.919Z,1015.18
2022-08-25T08:21:35.915Z,1015.17
2022-08-25T08:22:34.912Z,1015.15
2022-08-25T08:23:34.902Z,1015.18
2022-08-25T08:24:44.575Z,1015.30
2022-08-25T08:25:36.198Z,1015.20
2022-08-25T08:26:57.622Z,1015.22
2022-08-25T08:27:35.851Z,1015.13
2022-08-25T08:28:34.841Z,1015.15
2022-08-25T08:29:34.854Z,1015.17
2022-08-25T08:30:34.819Z,1015.11
2022-08-25T08:31:34.879Z,1015.06
2022-08-25T08:32:59.597Z,1015.19
2022-08-25T08:33:40.958Z,1015.12
2022-08-25T08:34:35.797Z,1015.09
2022-08-25T08:35:34.771Z,1015.33
2022-08-25T08:36:34.750Z,1015.12
2022-08-25T08:37:34.743Z,1015.13
2022-08-25T08:38:35.070Z,1015.00
2022-08-25T08:39:34.733Z,1014.97
2022-08-25T08:40:34.790Z,1014.99
2022-08-25T08:41:48.956Z,1015.02
2022-08-25T08:42:35.736Z,1014.96
2022-08-25T08:43:34.680Z,1015.04
2022-08-25T08:44:35.639Z,1014.95
2022-08-25T08:45:43.805Z,1014.92
2022-08-25T08:46:34.707Z,1014.90
2022-08-25T08:47:34.632Z,1014.98
2022-08-25T08:48:34.619Z,1014.95
2022-08-25T08:49:34.612Z,1014.99
2022-08-25T08:50:34.646Z,1014.97
2022-08-25T08:51:34.614Z,1015.01
2022-08-25T08:52:34.577Z,1014.99
2022-08-25T08:53:34.578Z,1014.94
2022-08-25T08:54:34.554Z,1015.03
2022-08-25T08:55:34.719Z,1015.14
2022-08-25T08:56:34.531Z,1014.96
2022-08-25T08:57:34.541Z,1015.01
2022-08-25T08:58:34.524Z,1014.99
2022-08-25T08:59:34.524Z,1015.04
2022-08-25T09:00:34.511Z,1015.12
2022-08-25T09:01:34.605Z,1014.97
2022-08-25T09:02:39.149Z,1014.95
2022-08-25T09:03:36.175Z,1014.99
2022-08-25T09:04:34.446Z,1014.93
2022-08-25T09:05:38.855Z,1014.99
2022-08-25T09:06:35.424Z,1014.99
2022-08-25T09:07:34.416Z,1014.94
2022-08-25T09:08:34.403Z,1014.98
2022-08-25T09:09:35.730Z,1014.95
2022-08-25T09:10:34.380Z,1014.91
2022-08-25T09:11:34.387Z,1014.91
2022-08-25T09:12:34.367Z,1014.89
2022-08-25T09:13:34.351Z,1014.91
2022-08-25T09:14:34.350Z,1014.89
2022-08-25T09:15:41.149Z,1014.92
2022-08-25T09:16:35.388Z,1014.91
2022-08-25T09:17:34.309Z,1014.93
2022-08-25T09:18:36.788Z,1014.99
2022-08-25T09:19:35.284Z,1015.00
2022-08-25T09:20:34.361Z,1015.03
2022-08-25T09:21:34.284Z,1014.99
2022-08-25T09:22:36.179Z,1014.97
2022-08-25T09:23:34.239Z,1014.96
2022-08-25T09:24:34.227Z,1014.84
2022-08-25T09:25:52.332Z,1014.91
2022-08-25T09:26:35.314Z,1014.84
2022-08-25T09:27:34.201Z,1014.81
2022-08-25T09:28:34.182Z,1014.86
2022-08-25T09:29:34.175Z,1014.83
2022-08-25T09:30:34.168Z,1014.83
2022-08-25T09:31:34.246Z,1014.83
2022-08-25T09:32:34.160Z,1014.87
2022-08-25T09:33:35.701Z,1014.74
2022-08-25T09:34:34.123Z,1014.81
2022-08-25T09:35:34.112Z,1014.89
2022-08-25T09:36:37.380Z,1014.87
2022-08-25T09:37:34.233Z,1014.81
2022-08-25T09:38:34.077Z,1014.82
2022-08-25T09:39:34.157Z,1014.85
2022-08-25T09:40:34.158Z,1015.18
2022-08-25T09:41:34.045Z,1014.76
2022-08-25T09:42:34.058Z,1014.80
2022-08-25T09:43:34.022Z,1014.87
2022-08-25T09:44:34.012Z,1014.91
2022-08-25T09:45:34.000Z,1014.73
2022-08-25T09:46:34.053Z,1014.87
2022-08-25T09:47:33.980Z,1015.22
2022-08-25T09:48:37.757Z,1015.15
2022-08-25T09:49:34.956Z,1015.12
2022-08-25T09:50:35.021Z,1015.25
2022-08-25T09:51:38.039Z,1015.16
2022-08-25T09:52:34.927Z,1014.77
2022-08-25T09:53:34.118Z,1014.77
2022-08-25T09:54:44.236Z,1014.80
2022-08-25T09:55:34.893Z,1015.18
2022-08-25T09:56:34.017Z,1015.08
2022-08-25T09:57:33.879Z,1014.75
2022-08-25T09:58:33.861Z,1014.68
2022-08-25T09:59:35.065Z,1015.15
2022-08-25T10:00:33.864Z,1014.95
2022-08-25T10:01:34.937Z,1014.85
2022-08-25T10:02:33.829Z,1014.98
2022-08-25T10:03:36.477Z,1014.96
2022-08-25T10:04:34.181Z,1014.73
2022-08-25T10:05:33.840Z,1014.96
2022-08-25T10:06:33.780Z,1015.15
2022-08-25T10:07:34.705Z,1014.62
2022-08-25T10:08:33.763Z,1014.84
2022-08-25T10:09:33.751Z,1015.07
2022-08-25T10:10:33.757Z,1014.82
2022-08-25T10:11:33.793Z,1014.93
2022-08-25T10:12:33.723Z,1014.54
2022-08-25T10:13:36.384Z,1014.52
2022-08-25T10:14:33.702Z,1014.92
2022-08-25T10:15:33.775Z,1014.90
2022-08-25T10:16:35.611Z,1014.98
2022-08-25T10:17:33.769Z,1015.03
2022-08-25T10:18:33.661Z,1014.97
2022-08-25T10:19:33.667Z,1014.97
2022-08-25T10:20:35.339Z,1014.97
2022-08-25T10:21:33.630Z,1014.98
2022-08-25T10:22:33.616Z,1014.97
2022-08-25T10:23:33.609Z,1014.95
2022-08-25T10:24:33.857Z,1014.94
2022-08-25T10:25:33.587Z,1014.64
2022-08-25T10:26:35.129Z,1014.61
2022-08-25T10:27:33.574Z,1014.43
2022-08-25T10:28:33.634Z,1014.51
2022-08-25T10:29:33.572Z,1014.71
2022-08-25T10:30:33.576Z,1014.61
2022-08-25T10:31:34.847Z,1014.55
2022-08-25T10:32:33.534Z,1014.51
2022-08-25T10:33:33.513Z,1014.57
2022-08-25T10:34:35.694Z,1014.58
2022-08-25T10:35:33.493Z,1014.98
2022-08-25T10:36:33.484Z,1014.95
2022-08-25T10:37:33.495Z,1014.42
2022-08-25T10:38:36.066Z,1014.41
2022-08-25T10:39:36.248Z,1014.38
2022-08-25T10:40:33.603Z,1014.46
2022-08-25T10:41:33.432Z,1014.55
2022-08-25T10:42:33.423Z,1014.87
2022-08-25T10:43:33.413Z,1014.45
2022-08-25T10:44:33.403Z,1014.35
2022-08-25T10:45:33.522Z,1014.43
2022-08-25T10:46:33.482Z,1014.63
2022-08-25T10:47:33.371Z,1014.51
2022-08-25T10:48:33.361Z,1014.52
2022-08-25T10:49:33.351Z,1014.52
2022-08-25T10:50:33.358Z,1014.54
2022-08-25T10:51:33.333Z,1014.68
2022-08-25T10:52:33.324Z,1014.42
2022-08-25T10:53:33.310Z,1014.74
2022-08-25T10:54:33.297Z,1014.77
2022-08-25T10:55:33.310Z,1014.15
2022-08-25T10:56:34.283Z,1014.18
2022-08-25T10:57:33.268Z,1014.13
2022-08-25T10:58:33.261Z,1014.58
2022-08-25T10:59:33.269Z,1014.34
2022-08-25T11:00:33.269Z,1014.44
2022-08-25T11:01:42.925Z,1013.99
2022-08-25T11:02:34.221Z,1013.98
2022-08-25T11:03:35.350Z,1014.34
2022-08-25T11:04:33.224Z,1014.13
2022-08-25T11:05:33.275Z,1014.42
2022-08-25T11:06:33.178Z,1014.03
2022-08-25T11:07:33.176Z,1013.96
2022-08-25T11:08:33.159Z,1014.37
2022-08-25T11:09:33.176Z,1014.40
2022-08-25T11:10:33.148Z,1013.92
2022-08-25T11:11:33.247Z,1014.41
2022-08-25T11:12:33.143Z,1014.26
2022-08-25T11:13:33.111Z,1014.43
2022-08-25T11:14:35.396Z,1013.93
2022-08-25T11:15:33.092Z,1013.94
2022-08-25T11:16:33.108Z,1013.94
2022-08-25T11:17:33.268Z,1014.07
2022-08-25T11:18:33.095Z,1013.94
2022-08-25T11:19:33.703Z,1014.38
2022-08-25T11:20:33.041Z,1014.45
2022-08-25T11:21:35.928Z,1014.46
2022-08-25T11:22:33.025Z,1013.93
2022-08-25T11:23:33.037Z,1013.89
2022-08-25T11:24:33.009Z,1013.94
2022-08-25T11:25:32.996Z,1014.08
2022-08-25T11:26:36.612Z,1014.24
2022-08-25T11:27:33.002Z,1013.90
2022-08-25T11:28:32.960Z,1013.78
2022-08-25T11:29:32.952Z,1014.06
2022-08-25T11:30:32.981Z,1014.19
2022-08-25T11:31:32.933Z,1014.24
2022-08-25T11:32:32.924Z,1014.33
2022-08-25T11:33:32.944Z,1013.99
2022-08-25T11:34:32.904Z,1013.73
2022-08-25T11:35:32.898Z,1013.79
2022-08-25T11:36:33.147Z,1013.95
2022-08-25T11:37:32.878Z,1014.17
2022-08-25T11:38:32.882Z,1014.13
2022-08-25T11:39:34.385Z,1014.23
2022-08-25T11:40:32.901Z,1013.74
2022-08-25T11:41:32.837Z,1013.91
2022-08-25T11:42:32.821Z,1013.69
2022-08-25T11:43:35.916Z,1013.67
2022-08-25T11:44:32.802Z,1013.67
2022-08-25T11:45:32.801Z,1013.66
2022-08-25T11:46:32.841Z,1013.62
2022-08-25T11:47:33.078Z,1013.65
2022-08-25T11:48:32.780Z,1013.71
2022-08-25T11:49:32.774Z,1014.19
2022-08-25T11:50:32.742Z,1014.20
2022-08-25T11:51:33.812Z,1013.99
2022-08-25T11:52:32.722Z,1013.63
2022-08-25T11:53:32.879Z,1014.11
2022-08-25T11:54:32.720Z,1014.07
2022-08-25T11:55:32.748Z,1014.08
2022-08-25T11:56:32.789Z,1013.65
2022-08-25T11:57:32.675Z,1013.66
2022-08-25T11:58:32.668Z,1013.62
2022-08-25T11:59:32.694Z,1013.61
2022-08-25T12:00:32.646Z,1013.59
2022-08-25T12:01:32.650Z,1014.02
2022-08-25T12:02:32.624Z,1014.02
2022-08-25T12:03:32.623Z,1013.53
2022-08-25T12:04:32.913Z,1013.67
2022-08-25T12:05:32.626Z,1013.87
2022-08-25T12:06:32.583Z,1013.56